createdAt,value
2019-04-03T00:01:41.581Z,71.54
2019-04-03T00:04:10.197Z,71.73
2019-04-03T00:06:38.813Z,71.65
2019-04-03T00:09:08.419Z,71.81
2019-04-03T00:11:39.751Z,71.74
2019-04-03T00:14:07.982Z,71.81
2019-04-03T00:16:36.634Z,71.78
2019-04-03T00:19:05.237Z,71.75
2019-04-03T00:21:33.704Z,71.79
2019-04-03T00:24:02.325Z,72.05
2019-04-03T00:26:31.149Z,71.98
2019-04-03T00:28:59.730Z,71.89
2019-04-03T00:31:28.390Z,71.91
2019-04-03T00:33:57.049Z,71.89
2019-04-03T00:36:25.672Z,72.25
2019-04-03T00:38:54.760Z,72.56
2019-04-03T00:41:24.728Z,72.26
2019-04-03T00:43:54.456Z,72.48
2019-04-03T00:46:24.475Z,72.39
2019-04-03T00:48:55.562Z,72.39
2019-04-03T00:51:24.035Z,72.15
2019-04-03T00:53:52.798Z,72.28
2019-04-03T00:56:21.313Z,72.32
2019-04-03T00:58:50.018Z,72.58
2019-04-03T01:01:18.651Z,72.43
2019-04-03T01:03:47.219Z,72.53
2019-04-03T01:06:15.916Z,72.55
2019-04-03T01:08:44.491Z,72.54
2019-04-03T01:11:13.011Z,72.76
2019-04-03T01:13:41.685Z,72.68
2019-04-03T01:16:10.335Z,72.83
2019-04-03T01:18:39.020Z,72.84
2019-04-03T01:21:07.706Z,72.75
2019-04-03T01:23:37.797Z,72.78
2019-04-03T01:26:09.255Z,72.67
2019-04-03T01:28:36.947Z,72.84
2019-04-03T01:31:05.583Z,73.16
2019-04-03T01:33:34.177Z,72.85
2019-04-03T01:36:02.802Z,72.87
2019-04-03T01:38:31.355Z,73.08
2019-04-03T01:40:59.854Z,73.26
2019-04-03T01:43:28.361Z,73.27
2019-04-03T01:45:57.315Z,73.58
2019-04-03T01:48:26.880Z,73.34
2019-04-03T01:50:57.775Z,73.80
2019-04-03T01:53:26.737Z,73.45
2019-04-03T01:55:55.383Z,73.71
2019-04-03T01:58:24.231Z,73.73
2019-04-03T02:00:52.840Z,73.59
2019-04-03T02:03:21.438Z,73.55
2019-04-03T02:05:49.914Z,73.96
2019-04-03T02:08:18.450Z,73.92
2019-04-03T02:10:48.912Z,73.83
2019-04-03T02:13:17.399Z,73.79
2019-04-03T02:15:46.133Z,73.53
2019-04-03T02:18:14.759Z,73.75
2019-04-03T02:20:43.373Z,73.74
2019-04-03T02:23:11.911Z,73.68
2019-04-03T02:25:40.494Z,73.81
2019-04-03T02:28:08.987Z,73.88
2019-04-03T02:30:37.526Z,73.82
2019-04-03T02:33:06.167Z,73.63
2019-04-03T02:35:34.800Z,73.82
2019-04-03T02:38:03.600Z,74.16
2019-04-03T02:40:33.109Z,74.09
2019-04-03T02:43:01.734Z,73.98
2019-04-03T02:45:30.548Z,74.35
2019-04-03T02:47:59.195Z,74.20
2019-04-03T02:50:28.407Z,74.28
2019-04-03T02:52:58.684Z,74.27
2019-04-03T02:55:27.317Z,74.40
2019-04-03T02:57:55.793Z,74.01
2019-04-03T03:00:24.393Z,74.15
2019-04-03T03:02:52.924Z,74.43
2019-04-03T03:05:21.489Z,74.12
2019-04-03T03:07:51.979Z,74.00
2019-04-03T03:10:20.724Z,73.62
2019-04-03T03:12:49.797Z,73.66
2019-04-03T03:15:20.201Z,73.45
2019-04-03T03:17:52.496Z,73.23
2019-04-03T03:20:23.847Z,73.17
2019-04-03T03:22:52.547Z,72.77
2019-04-03T03:25:21.850Z,72.57
2019-04-03T03:27:51.186Z,72.39
2019-04-03T03:30:35.686Z,72.30
2019-04-03T03:32:50.617Z,72.32
2019-04-03T03:35:28.490Z,72.14
2019-04-03T03:37:51.035Z,71.86
2019-04-03T03:40:20.296Z,71.69
2019-04-03T03:42:50.676Z,71.24
2019-04-03T03:45:21.664Z,71.26
2019-04-03T03:47:51.299Z,70.92
2019-04-03T03:50:24.513Z,70.80
2019-04-03T03:52:54.865Z,70.67
2019-04-03T03:55:25.523Z,70.76
2019-04-03T03:57:55.384Z,70.13
2019-04-03T04:00:24.784Z,69.98
2019-04-03T04:02:54.149Z,69.81
2019-04-03T04:05:23.094Z,69.69
2019-04-03T04:07:52.190Z,69.50
2019-04-03T04:10:24.059Z,69.23
2019-04-03T04:12:51.674Z,69.07
2019-04-03T04:15:20.312Z,68.81
2019-04-03T04:17:51.001Z,69.00
2019-04-03T04:20:19.224Z,68.90
2019-04-03T04:22:50.472Z,68.60
2019-04-03T04:25:19.205Z,68.85
2019-04-03T04:27:48.884Z,69.03
2019-04-03T04:30:19.034Z,68.92
2019-04-03T04:32:47.658Z,69.17
2019-04-03T04:35:16.358Z,69.07
2019-04-03T04:37:44.940Z,69.34
2019-04-03T04:40:13.563Z,69.49
2019-04-03T04:42:42.171Z,69.37
2019-04-03T04:45:11.833Z,69.50
2019-04-03T04:47:41.335Z,69.50
2019-04-03T04:50:09.948Z,69.37
2019-04-03T04:52:38.420Z,69.63
2019-04-03T04:55:07.417Z,69.59
2019-04-03T04:57:35.890Z,69.61
2019-04-03T05:00:07.235Z,69.57
2019-04-03T05:02:35.867Z,69.36
2019-04-03T05:05:08.687Z,69.24
2019-04-03T05:07:36.848Z,69.36
2019-04-03T05:10:06.715Z,69.13
2019-04-03T05:12:35.493Z,68.86
2019-04-03T05:15:04.548Z,68.64
2019-04-03T05:17:33.210Z,68.26
2019-04-03T05:20:01.938Z,67.99
2019-04-03T05:22:30.561Z,68.06
2019-04-03T05:24:59.963Z,67.91
2019-04-03T05:27:29.074Z,67.42
2019-04-03T05:29:57.709Z,66.81
2019-04-03T05:32:26.344Z,66.43
2019-04-03T05:34:54.877Z,65.68
2019-04-03T05:37:24.557Z,64.78
2019-04-03T05:39:55.632Z,61.74
2019-04-03T05:42:23.520Z,62.12
2019-04-03T05:44:52.175Z,61.33
2019-04-03T05:47:20.767Z,61.00
2019-04-03T05:49:51.266Z,60.73
2019-04-03T05:52:19.811Z,59.81
2019-04-03T05:54:48.484Z,59.68
2019-04-03T05:57:17.613Z,58.71
2019-04-03T05:59:59.116Z,58.30
2019-04-03T06:02:20.165Z,57.93
2019-04-03T06:04:46.969Z,57.34
2019-04-03T06:07:17.478Z,55.37
2019-04-03T06:09:45.854Z,53.68
2019-04-03T06:12:15.212Z,54.46
2019-04-03T06:14:44.623Z,53.50
2019-04-03T06:17:13.322Z,53.39
2019-04-03T06:19:41.960Z,52.79
2019-04-03T06:22:10.799Z,50.54
2019-04-03T06:24:39.499Z,50.23
2019-04-03T06:27:10.088Z,49.07
2019-04-03T06:29:38.385Z,48.54
2019-04-03T06:32:07.126Z,47.58
2019-04-03T06:34:38.064Z,47.22
2019-04-03T06:37:06.882Z,46.59
2019-04-03T06:39:35.651Z,45.53
2019-04-03T06:42:04.595Z,45.70
2019-04-03T06:44:33.133Z,44.74
2019-04-03T06:47:02.045Z,44.55
2019-04-03T06:49:30.664Z,43.63
2019-04-03T06:51:59.134Z,43.31
2019-04-03T06:54:31.144Z,43.19
2019-04-03T06:56:59.441Z,42.61
2019-04-03T06:59:28.050Z,42.73
2019-04-03T07:01:56.587Z,42.46
2019-04-03T07:04:25.136Z,41.08
2019-04-03T07:06:55.871Z,41.24
2019-04-03T07:09:34.134Z,41.30
2019-04-03T07:11:57.614Z,41.17
2019-04-03T07:14:27.172Z,40.30
2019-04-03T07:16:56.030Z,39.22
2019-04-03T07:19:24.574Z,39.13
2019-04-03T07:21:55.187Z,39.34
2019-04-03T07:24:23.560Z,38.18
2019-04-03T07:26:52.105Z,39.25
2019-04-03T07:29:20.742Z,38.11
2019-04-03T07:31:49.360Z,37.59
2019-04-03T07:34:17.901Z,38.11
2019-04-03T07:36:46.801Z,38.55
2019-04-03T07:39:15.327Z,38.30
2019-04-03T07:41:44.144Z,38.31
2019-04-03T07:44:12.719Z,38.36
2019-04-03T07:46:41.374Z,38.19
2019-04-03T07:49:10.490Z,37.80
2019-04-03T07:51:39.329Z,38.16
2019-04-03T07:54:07.941Z,38.20
2019-04-03T07:56:36.902Z,38.34
2019-04-03T07:59:05.512Z,37.95
2019-04-03T08:01:34.084Z,37.34
2019-04-03T08:04:02.694Z,37.43
2019-04-03T08:06:33.012Z,37.40
2019-04-03T08:09:08.273Z,37.27
2019-04-03T08:11:32.827Z,36.86
2019-04-03T08:14:02.114Z,36.67
2019-04-03T08:16:30.589Z,36.53
2019-04-03T08:18:59.241Z,36.19
2019-04-03T08:21:29.988Z,36.61
2019-04-03T08:23:58.269Z,36.35
2019-04-03T08:26:27.458Z,36.00
2019-04-03T08:28:56.489Z,35.82
2019-04-03T08:31:24.988Z,35.38
2019-04-03T08:33:53.590Z,33.82
2019-04-03T08:36:24.957Z,34.55
2019-04-03T08:38:52.466Z,33.54
2019-04-03T08:41:22.134Z,33.49
2019-04-03T08:43:51.643Z,33.56
2019-04-03T08:46:20.578Z,33.43
2019-04-03T08:48:49.303Z,33.15
2019-04-03T08:51:18.015Z,32.52
2019-04-03T08:53:46.666Z,32.59
2019-04-03T08:56:17.120Z,31.70
2019-04-03T08:58:45.989Z,31.95
2019-04-03T09:01:14.982Z,32.09
2019-04-03T09:03:45.336Z,31.74
2019-04-03T09:06:14.098Z,32.07
2019-04-03T09:08:42.635Z,31.24
2019-04-03T09:11:14.079Z,31.70
2019-04-03T09:13:42.574Z,31.49
2019-04-03T09:16:11.109Z,31.21
2019-04-03T09:18:39.774Z,30.74
2019-04-03T09:21:08.450Z,30.85
2019-04-03T09:23:37.380Z,30.49
2019-04-03T09:26:06.003Z,30.51
2019-04-03T09:28:34.677Z,29.83
2019-04-03T09:31:03.652Z,29.93
2019-04-03T09:33:32.192Z,28.59
2019-04-03T09:36:03.702Z,29.48
2019-04-03T09:38:30.988Z,29.71
2019-04-03T09:40:59.658Z,29.05
2019-04-03T09:43:28.242Z,29.02
2019-04-03T09:45:59.317Z,28.98
2019-04-03T09:48:27.064Z,28.98
2019-04-03T09:50:55.678Z,28.90
2019-04-03T09:53:26.381Z,28.23
2019-04-03T09:55:54.801Z,28.01
2019-04-03T09:58:23.339Z,28.44
2019-04-03T10:00:51.952Z,28.71
2019-04-03T10:03:20.847Z,28.79
2019-04-03T10:05:50.874Z,28.49
2019-04-03T10:08:19.460Z,27.96
2019-04-03T10:10:48.327Z,28.04
2019-04-03T10:13:17.133Z,28.31
2019-04-03T10:15:45.816Z,28.60
2019-04-03T10:18:14.308Z,28.72
2019-04-03T10:20:44.329Z,28.37
2019-04-03T10:23:13.472Z,28.07
2019-04-03T10:25:42.143Z,28.55
2019-04-03T10:28:13.891Z,28.63
2019-04-03T10:30:41.128Z,28.44
2019-04-03T10:33:10.580Z,28.91
2019-04-03T10:35:39.861Z,29.05
2019-04-03T10:38:08.578Z,29.25
2019-04-03T10:40:37.127Z,29.33
2019-04-03T10:43:06.387Z,29.00
2019-04-03T10:45:35.888Z,28.89
2019-04-03T10:48:04.619Z,28.50
2019-04-03T10:50:33.163Z,28.67
2019-04-03T10:53:01.804Z,28.77
2019-04-03T10:55:30.481Z,28.65
2019-04-03T10:58:01.573Z,28.39
2019-04-03T11:00:29.903Z,28.35
2019-04-03T11:02:58.810Z,27.99
2019-04-03T11:05:27.432Z,28.01
2019-04-03T11:07:57.639Z,28.42
2019-04-03T11:10:26.305Z,28.21
2019-04-03T11:12:54.903Z,28.21
2019-04-03T11:15:23.576Z,28.25
2019-04-03T11:17:52.172Z,28.33
2019-04-03T11:20:21.089Z,28.15
2019-04-03T11:22:49.698Z,28.39
2019-04-03T11:25:18.378Z,28.47
2019-04-03T11:27:47.436Z,28.51
2019-04-03T11:30:23.388Z,28.05
2019-04-03T11:32:47.820Z,27.82
2019-04-03T11:35:16.908Z,27.45
2019-04-03T11:37:45.619Z,27.72
2019-04-03T11:40:17.337Z,27.25
2019-04-03T11:42:45.780Z,27.03
2019-04-03T11:45:16.122Z,27.19
2019-04-03T11:47:46.198Z,26.97
2019-04-03T11:50:17.270Z,27.05
2019-04-03T11:52:45.880Z,27.52
2019-04-03T11:55:14.621Z,27.91
2019-04-03T11:57:43.151Z,28.09
2019-04-03T12:00:15.576Z,27.81
2019-04-03T12:02:44.804Z,28.10
2019-04-03T12:05:19.874Z,28.20
2019-04-03T12:07:46.034Z,28.06
2019-04-03T12:10:14.687Z,28.37
2019-04-03T12:12:43.179Z,28.65
2019-04-03T12:15:15.685Z,28.77
2019-04-03T12:17:43.170Z,28.75
2019-04-03T12:20:15.317Z,29.07
2019-04-03T12:22:43.307Z,29.30
2019-04-03T12:25:12.424Z,29.66
2019-04-03T12:27:44.994Z,29.82
2019-04-03T12:30:11.526Z,30.19
2019-04-03T12:32:45.330Z,30.32
2019-04-03T12:35:11.311Z,30.55
2019-04-03T12:37:40.321Z,31.01
2019-04-03T12:40:09.480Z,31.02
2019-04-03T12:42:38.087Z,31.02
2019-04-03T12:45:08.517Z,31.45
2019-04-03T12:47:37.090Z,31.18
2019-04-03T12:50:07.662Z,31.38
2019-04-03T12:52:36.696Z,31.65
2019-04-03T12:55:08.633Z,31.66
2019-04-03T12:57:39.246Z,31.84
2019-04-03T13:00:12.925Z,31.76
2019-04-03T13:02:42.486Z,32.08
2019-04-03T13:05:11.233Z,32.38
2019-04-03T13:07:39.854Z,32.57
2019-04-03T13:10:10.304Z,32.56
2019-04-03T13:12:39.282Z,32.51
2019-04-03T13:15:10.553Z,32.40
2019-04-03T13:17:39.229Z,32.66
2019-04-03T13:20:09.208Z,32.62
2019-04-03T13:22:37.965Z,33.08
2019-04-03T13:25:10.700Z,33.05
2019-04-03T13:27:39.684Z,33.09
2019-04-03T13:30:11.914Z,32.93
2019-04-03T13:32:40.595Z,33.10
2019-04-03T13:35:09.659Z,33.31
2019-04-03T13:37:38.283Z,33.15
2019-04-03T13:40:09.176Z,33.38
2019-04-03T13:42:37.854Z,33.10
2019-04-03T13:45:09.457Z,33.23
2019-04-03T13:47:41.082Z,33.29
2019-04-03T13:50:10.690Z,33.44
2019-04-03T13:52:43.217Z,33.37
2019-04-03T13:55:10.195Z,33.44
2019-04-03T13:57:38.834Z,33.64
2019-04-03T14:00:18.730Z,33.67
2019-04-03T14:02:39.992Z,33.67
2019-04-03T14:05:09.767Z,33.72
2019-04-03T14:07:41.578Z,33.84
2019-04-03T14:10:11.083Z,33.96
2019-04-03T14:12:43.563Z,33.82
2019-04-03T14:15:10.183Z,34.00
2019-04-03T14:17:39.829Z,33.69
2019-04-03T14:20:10.031Z,33.72
2019-04-03T14:22:38.613Z,33.99
2019-04-03T14:25:19.349Z,34.10
2019-04-03T14:27:41.810Z,34.18
2019-04-03T14:30:11.983Z,34.20
2019-04-03T14:32:42.156Z,34.03
2019-04-03T14:35:41.263Z,34.20
2019-04-03T14:37:42.218Z,34.19
2019-04-03T14:40:13.458Z,34.38
2019-04-03T14:42:43.171Z,34.22
2019-04-03T14:45:14.426Z,34.28
2019-04-03T14:47:43.207Z,34.49
2019-04-03T14:50:12.369Z,34.54
2019-04-03T14:52:41.099Z,34.63
2019-04-03T14:55:18.040Z,34.64
2019-04-03T14:57:41.383Z,35.01
2019-04-03T15:00:24.798Z,35.05
2019-04-03T15:02:43.307Z,35.16
2019-04-03T15:05:12.031Z,35.11
2019-04-03T15:07:40.663Z,35.12
2019-04-03T15:10:10.708Z,35.14
2019-04-03T15:12:40.667Z,35.06
2019-04-03T15:15:11.012Z,35.21
2019-04-03T15:17:39.983Z,35.34
2019-04-03T15:20:11.488Z,35.42
2019-04-03T15:22:40.310Z,35.50
2019-04-03T15:25:09.634Z,35.76
2019-04-03T15:27:38.318Z,35.83
2019-04-03T15:30:11.829Z,35.73
2019-04-03T15:32:40.153Z,35.96
2019-04-03T15:35:10.712Z,36.05
2019-04-03T15:37:41.502Z,36.13
2019-04-03T15:40:09.627Z,36.13
2019-04-03T15:42:40.250Z,36.16
2019-04-03T15:45:10.036Z,36.39
2019-04-03T15:47:44.130Z,36.46
2019-04-03T15:50:09.754Z,36.57
2019-04-03T15:52:38.726Z,36.76
2019-04-03T15:55:08.440Z,36.85
2019-04-03T15:57:39.595Z,36.89
2019-04-03T16:00:13.282Z,36.99
2019-04-03T16:02:44.521Z,37.10
2019-04-03T16:05:13.455Z,37.13
2019-04-03T16:07:42.692Z,37.30
2019-04-03T16:10:12.282Z,37.42
2019-04-03T16:12:42.755Z,37.44
2019-04-03T16:15:11.721Z,37.50
2019-04-03T16:17:40.623Z,37.57
2019-04-03T16:20:10.444Z,37.64
2019-04-03T16:22:39.235Z,37.73
2019-04-03T16:25:08.331Z,37.91
2019-04-03T16:27:37.418Z,37.98
2019-04-03T16:30:14.217Z,38.08
2019-04-03T16:32:41.563Z,38.17
2019-04-03T16:35:12.578Z,38.27
2019-04-03T16:37:41.525Z,38.42
2019-04-03T16:40:11.280Z,38.40
2019-04-03T16:42:40.093Z,38.45
2019-04-03T16:45:10.600Z,38.57
2019-04-03T16:47:40.166Z,38.79
2019-04-03T16:50:11.008Z,38.95
2019-04-03T16:52:40.060Z,39.16
2019-04-03T16:55:09.181Z,39.31
2019-04-03T16:57:38.283Z,39.38
2019-04-03T17:00:10.161Z,39.46
2019-04-03T17:02:39.055Z,39.58
2019-04-03T17:05:11.304Z,39.71
2019-04-03T17:07:40.421Z,39.78
2019-04-03T17:10:10.751Z,39.83
2019-04-03T17:12:39.908Z,39.90
2019-04-03T17:15:11.951Z,40.12
2019-04-03T17:17:40.369Z,40.26
2019-04-03T17:20:09.712Z,40.53
2019-04-03T17:22:40.221Z,40.82
2019-04-03T17:25:09.886Z,41.14
2019-04-03T17:27:38.578Z,41.52
2019-04-03T17:30:08.573Z,41.86
2019-04-03T17:32:38.931Z,42.18
2019-04-03T17:35:07.899Z,42.50
2019-04-03T17:37:37.270Z,42.68
2019-04-03T17:40:10.864Z,42.96
2019-04-03T17:42:40.191Z,43.19
2019-04-03T17:45:10.403Z,43.42
2019-04-03T17:47:39.029Z,43.61
2019-04-03T17:50:08.383Z,43.89
2019-04-03T17:52:37.305Z,44.00
2019-04-03T17:55:11.112Z,44.32
2019-04-03T17:57:39.757Z,44.71
2019-04-03T18:00:20.478Z,44.89
2019-04-03T18:02:47.767Z,45.21
2019-04-03T18:05:16.844Z,45.40
2019-04-03T18:07:45.460Z,45.64
2019-04-03T18:10:14.385Z,46.02
2019-04-03T18:12:45.463Z,46.18
2019-04-03T18:15:14.182Z,46.51
2019-04-03T18:17:43.285Z,46.96
2019-04-03T18:20:13.554Z,47.26
2019-04-03T18:22:42.230Z,47.50
2019-04-03T18:25:11.739Z,47.67
2019-04-03T18:27:40.354Z,47.81
2019-04-03T18:30:11.886Z,47.94
2019-04-03T18:32:40.395Z,48.17
2019-04-03T18:35:09.778Z,48.33
2019-04-03T18:37:40.904Z,48.46
2019-04-03T18:40:14.149Z,48.57
2019-04-03T18:42:41.291Z,48.75
2019-04-03T18:45:10.130Z,49.03
2019-04-03T18:47:41.485Z,49.40
2019-04-03T18:50:10.095Z,49.71
2019-04-03T18:52:39.402Z,50.01
2019-04-03T18:55:08.661Z,50.13
2019-04-03T18:57:37.283Z,50.37
2019-04-03T19:00:09.855Z,50.44
2019-04-03T19:02:38.807Z,50.63
2019-04-03T19:05:13.514Z,50.77
2019-04-03T19:07:39.684Z,50.99
2019-04-03T19:10:09.434Z,51.16
2019-04-03T19:12:43.108Z,51.61
2019-04-03T19:15:09.481Z,51.93
2019-04-03T19:17:38.138Z,52.12
2019-04-03T19:20:10.827Z,52.34
2019-04-03T19:22:38.006Z,52.57
2019-04-03T19:25:08.409Z,52.99
2019-04-03T19:27:37.048Z,53.04
2019-04-03T19:30:09.474Z,53.01
2019-04-03T19:32:38.122Z,52.99
2019-04-03T19:35:09.534Z,53.07
2019-04-03T19:37:39.133Z,52.98
2019-04-03T19:40:09.930Z,53.16
2019-04-03T19:42:38.399Z,53.12
2019-04-03T19:45:08.324Z,53.85
2019-04-03T19:47:36.925Z,53.95
2019-04-03T19:50:08.165Z,53.98
2019-04-03T19:52:37.434Z,54.15
2019-04-03T19:55:07.988Z,54.14
2019-04-03T19:57:36.623Z,54.28
2019-04-03T20:00:08.002Z,54.44
2019-04-03T20:02:38.295Z,54.48
2019-04-03T20:05:08.241Z,54.45
2019-04-03T20:07:36.948Z,54.97
2019-04-03T20:10:08.599Z,55.09
2019-04-03T20:12:37.772Z,55.24
2019-04-03T20:15:09.505Z,55.54
2019-04-03T20:17:38.168Z,56.01
2019-04-03T20:20:10.192Z,56.41
2019-04-03T20:22:42.255Z,56.56
2019-04-03T20:25:09.242Z,56.88
2019-04-03T20:27:38.075Z,57.06
2019-04-03T20:30:08.283Z,57.10
2019-04-03T20:32:39.981Z,57.44
2019-04-03T20:35:07.794Z,57.45
2019-04-03T20:37:36.478Z,57.31
2019-04-03T20:40:06.962Z,57.10
2019-04-03T20:42:35.563Z,57.00
2019-04-03T20:45:06.019Z,56.92
2019-04-03T20:47:34.645Z,57.05
2019-04-03T20:50:06.602Z,57.14
2019-04-03T20:52:33.889Z,57.26
2019-04-03T20:55:02.622Z,57.38
2019-04-03T20:57:33.354Z,57.39
2019-04-03T21:00:03.208Z,57.62
2019-04-03T21:02:31.823Z,57.77
2019-04-03T21:05:00.368Z,58.17
2019-04-03T21:07:28.907Z,58.41
2019-04-03T21:10:00.630Z,58.74
2019-04-03T21:12:27.871Z,58.83
2019-04-03T21:15:07.674Z,58.66
2019-04-03T21:17:26.675Z,58.69
2019-04-03T21:19:55.263Z,59.28
2019-04-03T21:22:29.546Z,59.43
2019-04-03T21:24:56.905Z,59.45
2019-04-03T21:27:25.450Z,59.63
2019-04-03T21:29:54.084Z,60.19
2019-04-03T21:32:22.742Z,60.25
2019-04-03T21:34:52.969Z,60.55
2019-04-03T21:37:21.510Z,60.50
2019-04-03T21:39:50.112Z,60.67
2019-04-03T21:42:18.648Z,60.85
2019-04-03T21:44:47.456Z,60.84
2019-04-03T21:47:16.066Z,60.92
2019-04-03T21:49:47.405Z,61.07
2019-04-03T21:52:15.012Z,61.22
2019-04-03T21:54:43.541Z,61.38
2019-04-03T21:57:12.262Z,61.35
2019-04-03T21:59:41.713Z,61.91
2019-04-03T22:02:10.795Z,61.91
2019-04-03T22:04:39.405Z,62.01
2019-04-03T22:07:08.012Z,62.26
2019-04-03T22:09:36.554Z,62.68
2019-04-03T22:12:05.898Z,62.69
2019-04-03T22:14:35.342Z,62.93
2019-04-03T22:17:03.957Z,63.16
2019-04-03T22:19:32.565Z,63.29
2019-04-03T22:22:02.945Z,63.33
2019-04-03T22:24:31.606Z,63.71
2019-04-03T22:27:00.245Z,63.66
2019-04-03T22:29:28.695Z,63.90
2019-04-03T22:31:57.371Z,64.09
2019-04-03T22:34:25.942Z,64.20
2019-04-03T22:36:54.481Z,63.82
2019-04-03T22:39:23.082Z,64.31
2019-04-03T22:41:51.618Z,64.18
2019-04-03T22:44:20.243Z,64.07
2019-04-03T22:46:48.841Z,63.86
2019-04-03T22:49:17.442Z,64.02
2019-04-03T22:51:46.045Z,64.90
2019-04-03T22:54:14.535Z,65.14
2019-04-03T22:56:43.134Z,65.01
2019-04-03T22:59:11.715Z,65.09
2019-04-03T23:01:40.475Z,65.10
2019-04-03T23:04:09.012Z,65.24
2019-04-03T23:06:37.556Z,65.49
2019-04-03T23:09:08.002Z,65.58
2019-04-03T23:11:36.468Z,65.05
2019-04-03T23:14:06.969Z,65.54
2019-04-03T23:16:36.094Z,65.61
2019-04-03T23:19:04.800Z,65.72
2019-04-03T23:21:33.407Z,65.89
2019-04-03T23:24:02.092Z,65.80
2019-04-03T23:26:32.231Z,66.05
2019-04-03T23:29:00.946Z,65.92
2019-04-03T23:31:29.498Z,66.01
2019-04-03T23:33:57.961Z,66.42
2019-04-03T23:36:26.436Z,66.38
2019-04-03T23:38:56.534Z,66.38
2019-04-03T23:41:25.233Z,66.43
2019-04-03T23:43:53.697Z,66.53
2019-04-03T23:46:22.197Z,66.51
2019-04-03T23:48:50.759Z,66.78
2019-04-03T23:51:23.520Z,66.96
2019-04-03T23:53:49.474Z,66.87
2019-04-03T23:56:17.943Z,66.79
2019-04-03T23:58:46.488Z,67.02
